sensor_id;sensor_type;location;lat;lon;timestamp;temperature;humidity
17703;DHT22;8970;48.104;-1.680;2022-07-23T00:01:12;17.20;99.90
17703;DHT22;8970;48.104;-1.680;2022-07-23T00:01:49;17.20;99.90
17703;DHT22;8970;48.104;-1.680;2022-07-23T00:02:25;17.20;99.90
17703;DHT22;8970;48.104;-1.680;2022-07-23T00:03:45;17.20;99.90
17703;DHT22;8970;48.104;-1.680;2022-07-23T00:04:22;17.20;99.90
17703;DHT22;8970;48.104;-1.680;2022-07-23T00:04:58;17.20;99.90
17703;DHT22;8970;48.104;-1.680;2022-07-23T00:05:36;17.20;99.90
17703;DHT22;8970;48.104;-1.680;2022-07-23T00:06:57;17.30;99.90
17703;DHT22;8970;48.104;-1.680;2022-07-23T00:07:34;17.20;99.90
17703;DHT22;8970;48.104;-1.680;2022-07-23T00:08:11;17.30;99.90
17703;DHT22;8970;48.104;-1.680;2022-07-23T00:09:31;17.30;99.90
17703;DHT22;8970;48.104;-1.680;2022-07-23T00:10:10;17.30;99.90
17703;DHT22;8970;48.104;-1.680;2022-07-23T00:11:31;17.40;99.90
17703;DHT22;8970;48.104;-1.680;2022-07-23T00:12:07;17.40;99.90
17703;DHT22;8970;48.104;-1.680;2022-07-23T00:12:44;17.30;99.90
17703;DHT22;8970;48.104;-1.680;2022-07-23T00:13:21;17.30;99.90
17703;DHT22;8970;48.104;-1.680;2022-07-23T00:13:58;17.30;99.90
17703;DHT22;8970;48.104;-1.680;2022-07-23T00:14:35;17.30;99.90
17703;DHT22;8970;48.104;-1.680;2022-07-23T00:15:12;17.30;99.90
17703;DHT22;8970;48.104;-1.680;2022-07-23T00:15:49;17.20;99.90
17703;DHT22;8970;48.104;-1.680;2022-07-23T00:17:09;17.20;99.90
17703;DHT22;8970;48.104;-1.680;2022-07-23T00:17:46;17.20;99.90
17703;DHT22;8970;48.104;-1.680;2022-07-23T00:18:22;17.10;99.90
17703;DHT22;8970;48.104;-1.680;2022-07-23T00:19:44;17.00;99.90
17703;DHT22;8970;48.104;-1.680;2022-07-23T00:20:21;16.90;99.90
17703;DHT22;8970;48.104;-1.680;2022-07-23T00:20:58;16.90;99.90
17703;DHT22;8970;48.104;-1.680;2022-07-23T00:22:20;16.90;99.90
17703;DHT22;8970;48.104;-1.680;2022-07-23T00:22:57;16.80;99.90
17703;DHT22;8970;48.104;-1.680;2022-07-23T00:23:33;16.80;99.90
17703;DHT22;8970;48.104;-1.680;2022-07-23T00:24:11;16.80;99.90
17703;DHT22;8970;48.104;-1.680;2022-07-23T00:24:48;16.80;99.90
17703;DHT22;8970;48.104;-1.680;2022-07-23T00:26:10;16.70;99.90
17703;DHT22;8970;48.104;-1.680;2022-07-23T00:26:47;16.70;99.90
17703;DHT22;8970;48.104;-1.680;2022-07-23T00:27:23;16.70;99.90
17703;DHT22;8970;48.104;-1.680;2022-07-23T00:28:47;16.70;99.90
17703;DHT22;8970;48.104;-1.680;2022-07-23T00:29:24;16.70;99.90
17703;DHT22;8970;48.104;-1.680;2022-07-23T00:30:00;16.70;99.90
17703;DHT22;8970;48.104;-1.680;2022-07-23T00:31:21;16.70;99.90
17703;DHT22;8970;48.104;-1.680;2022-07-23T00:31:58;16.70;99.90
17703;DHT22;8970;48.104;-1.680;2022-07-23T00:32:47;16.70;99.90
17703;DHT22;8970;48.104;-1.680;2022-07-23T00:34:11;16.70;99.90
17703;DHT22;8970;48.104;-1.680;2022-07-23T00:34:48;16.70;99.90
17703;DHT22;8970;48.104;-1.680;2022-07-23T00:35:25;16.70;99.90
17703;DHT22;8970;48.104;-1.680;2022-07-23T00:36:03;16.70;99.90
17703;DHT22;8970;48.104;-1.680;2022-07-23T00:37:25;16.60;99.90
17703;DHT22;8970;48.104;-1.680;2022-07-23T00:38:03;16.60;99.90
17703;DHT22;8970;48.104;-1.680;2022-07-23T00:38:42;16.60;99.90
17703;DHT22;8970;48.104;-1.680;2022-07-23T00:39:20;16.50;99.90
17703;DHT22;8970;48.104;-1.680;2022-07-23T00:39:57;16.50;99.90
17703;DHT22;8970;48.104;-1.680;2022-07-23T00:41:20;16.50;99.90
17703;DHT22;8970;48.104;-1.680;2022-07-23T00:41:56;16.40;99.90
17703;DHT22;8970;48.104;-1.680;2022-07-23T00:42:33;16.40;99.90
17703;DHT22;8970;48.104;-1.680;2022-07-23T00:43:10;16.40;99.90
17703;DHT22;8970;48.104;-1.680;2022-07-23T00:44:31;16.40;99.90
17703;DHT22;8970;48.104;-1.680;2022-07-23T00:45:09;16.40;99.90
17703;DHT22;8970;48.104;-1.680;2022-07-23T00:45:47;16.40;99.90
17703;DHT22;8970;48.104;-1.680;2022-07-23T00:47:07;16.40;99.90
17703;DHT22;8970;48.104;-1.680;2022-07-23T00:47:44;16.30;99.90
17703;DHT22;8970;48.104;-1.680;2022-07-23T00:49:06;16.40;99.90
17703;DHT22;8970;48.104;-1.680;2022-07-23T00:49:44;16.30;99.90
17703;DHT22;8970;48.104;-1.680;2022-07-23T00:50:21;16.30;99.90
17703;DHT22;8970;48.104;-1.680;2022-07-23T00:51:41;16.30;99.90
17703;DHT22;8970;48.104;-1.680;2022-07-23T00:52:18;16.30;99.90
17703;DHT22;8970;48.104;-1.680;2022-07-23T00:52:55;16.30;99.90
17703;DHT22;8970;48.104;-1.680;2022-07-23T00:53:32;16.30;99.90
17703;DHT22;8970;48.104;-1.680;2022-07-23T00:54:55;16.30;99.90
17703;DHT22;8970;48.104;-1.680;2022-07-23T00:55:33;16.30;99.90
17703;DHT22;8970;48.104;-1.680;2022-07-23T00:56:09;16.30;99.90
17703;DHT22;8970;48.104;-1.680;2022-07-23T00:56:47;16.30;99.90
17703;DHT22;8970;48.104;-1.680;2022-07-23T00:58:09;16.30;99.90
17703;DHT22;8970;48.104;-1.680;2022-07-23T00:58:46;16.30;99.90
17703;DHT22;8970;48.104;-1.680;2022-07-23T00:59:23;16.30;99.90
17703;DHT22;8970;48.104;-1.680;2022-07-23T01:00:43;16.30;99.90
17703;DHT22;8970;48.104;-1.680;2022-07-23T01:01:20;16.30;99.90
17703;DHT22;8970;48.104;-1.680;2022-07-23T01:01:59;16.30;99.90
17703;DHT22;8970;48.104;-1.680;2022-07-23T01:02:36;16.30;99.90
17703;DHT22;8970;48.104;-1.680;2022-07-23T01:03:13;16.30;99.90
17703;DHT22;8970;48.104;-1.680;2022-07-23T01:03:50;16.30;99.90
17703;DHT22;8970;48.104;-1.680;2022-07-23T01:05:12;16.30;99.90
17703;DHT22;8970;48.104;-1.680;2022-07-23T01:05:49;16.30;99.90
17703;DHT22;8970;48.104;-1.680;2022-07-23T01:07:11;16.30;99.90
17703;DHT22;8970;48.104;-1.680;2022-07-23T01:07:48;16.30;99.90
17703;DHT22;8970;48.104;-1.680;2022-07-23T01:08:25;16.30;99.90
17703;DHT22;8970;48.104;-1.680;2022-07-23T01:09:45;16.30;99.90
17703;DHT22;8970;48.104;-1.680;2022-07-23T01:10:22;16.30;99.90
17703;DHT22;8970;48.104;-1.680;2022-07-23T01:11:08;16.30;99.90
17703;DHT22;8970;48.104;-1.680;2022-07-23T01:12:30;16.30;99.90
17703;DHT22;8970;48.104;-1.680;2022-07-23T01:13:09;16.30;99.90
17703;DHT22;8970;48.104;-1.680;2022-07-23T01:13:45;16.30;99.90
17703;DHT22;8970;48.104;-1.680;2022-07-23T01:14:22;16.30;99.90
17703;DHT22;8970;48.104;-1.680;2022-07-23T01:15:44;16.30;99.90
17703;DHT22;8970;48.104;-1.680;2022-07-23T01:16:21;16.30;99.90
17703;DHT22;8970;48.104;-1.680;2022-07-23T01:16:58;16.30;99.90
17703;DHT22;8970;48.104;-1.680;2022-07-23T01:17:35;16.30;99.90
17703;DHT22;8970;48.104;-1.680;2022-07-23T01:18:11;16.40;99.90
17703;DHT22;8970;48.104;-1.680;2022-07-23T01:18:48;16.40;99.90
17703;DHT22;8970;48.104;-1.680;2022-07-23T01:19:25;16.40;99.90
17703;DHT22;8970;48.104;-1.680;2022-07-23T01:20:44;16.40;99.90
17703;DHT22;8970;48.104;-1.680;2022-07-23T01:21:21;16.40;99.90
17703;DHT22;8970;48.104;-1.680;2022-07-23T01:22:00;16.50;99.90
17703;DHT22;8970;48.104;-1.680;2022-07-23T01:23:23;16.50;99.90
17703;DHT22;8970;48.104;-1.680;2022-07-23T01:23:59;16.50;99.90
17703;DHT22;8970;48.104;-1.680;2022-07-23T01:25:20;16.50;99.90
17703;DHT22;8970;48.104;-1.680;2022-07-23T01:25:57;16.50;99.90
17703;DHT22;8970;48.104;-1.680;2022-07-23T01:26:33;16.50;99.90
17703;DHT22;8970;48.104;-1.680;2022-07-23T01:27:11;16.50;99.90
17703;DHT22;8970;48.104;-1.680;2022-07-23T01:27:49;16.50;99.90
17703;DHT22;8970;48.104;-1.680;2022-07-23T01:29:12;16.50;99.90
17703;DHT22;8970;48.104;-1.680;2022-07-23T01:29:49;16.50;99.90
17703;DHT22;8970;48.104;-1.680;2022-07-23T01:30:26;16.50;99.90
17703;DHT22;8970;48.104;-1.680;2022-07-23T01:31:48;16.50;99.90
17703;DHT22;8970;48.104;-1.680;2022-07-23T01:32:25;16.50;99.90
17703;DHT22;8970;48.104;-1.680;2022-07-23T01:33:01;16.40;99.90
17703;DHT22;8970;48.104;-1.680;2022-07-23T01:34:23;16.30;99.90
17703;DHT22;8970;48.104;-1.680;2022-07-23T01:35:01;16.30;99.90
17703;DHT22;8970;48.104;-1.680;2022-07-23T01:35:38;16.20;99.90
17703;DHT22;8970;48.104;-1.680;2022-07-23T01:37:01;16.10;99.90
17703;DHT22;8970;48.104;-1.680;2022-07-23T01:37:40;16.10;99.90
17703;DHT22;8970;48.104;-1.680;2022-07-23T01:38:17;16.10;99.90
17703;DHT22;8970;48.104;-1.680;2022-07-23T01:39:39;16.00;99.90
17703;DHT22;8970;48.104;-1.680;2022-07-23T01:40:15;16.00;99.90
17703;DHT22;8970;48.104;-1.680;2022-07-23T01:40:52;16.00;99.90
17703;DHT22;8970;48.104;-1.680;2022-07-23T01:41:29;16.00;99.90
17703;DHT22;8970;48.104;-1.680;2022-07-23T01:42:47;16.00;99.90
17703;DHT22;8970;48.104;-1.680;2022-07-23T01:43:24;16.00;99.90
17703;DHT22;8970;48.104;-1.680;2022-07-23T01:44:00;16.00;99.90
17703;DHT22;8970;48.104;-1.680;2022-07-23T01:45:22;16.00;99.90
17703;DHT22;8970;48.104;-1.680;2022-07-23T01:45:59;16.00;99.90
17703;DHT22;8970;48.104;-1.680;2022-07-23T01:47:20;16.10;99.90
17703;DHT22;8970;48.104;-1.680;2022-07-23T01:47:57;16.10;99.90
17703;DHT22;8970;48.104;-1.680;2022-07-23T01:48:35;16.10;99.90
17703;DHT22;8970;48.104;-1.680;2022-07-23T01:49:57;16.10;99.90
17703;DHT22;8970;48.104;-1.680;2022-07-23T01:50:34;16.10;99.90
17703;DHT22;8970;48.104;-1.680;2022-07-23T01:51:10;16.10;99.90
17703;DHT22;8970;48.104;-1.680;2022-07-23T01:52:32;16.10;99.90
17703;DHT22;8970;48.104;-1.680;2022-07-23T01:53:08;16.10;99.90
17703;DHT22;8970;48.104;-1.680;2022-07-23T01:54:33;16.00;99.90
17703;DHT22;8970;48.104;-1.680;2022-07-23T01:55:10;16.00;99.90
17703;DHT22;8970;48.104;-1.680;2022-07-23T01:55:47;16.00;99.90
17703;DHT22;8970;48.104;-1.680;2022-07-23T01:57:09;16.00;99.90
17703;DHT22;8970;48.104;-1.680;2022-07-23T01:58:31;15.90;99.90
17703;DHT22;8970;48.104;-1.680;2022-07-23T01:59:08;15.90;99.90
17703;DHT22;8970;48.104;-1.680;2022-07-23T01:59:45;15.90;99.90
17703;DHT22;8970;48.104;-1.680;2022-07-23T02:01:05;15.90;99.90
17703;DHT22;8970;48.104;-1.680;2022-07-23T02:01:42;15.90;99.90
17703;DHT22;8970;48.104;-1.680;2022-07-23T02:02:19;16.00;99.90
17703;DHT22;8970;48.104;-1.680;2022-07-23T02:03:41;16.00;99.90
17703;DHT22;8970;48.104;-1.680;2022-07-23T02:04:18;16.00;99.90
17703;DHT22;8970;48.104;-1.680;2022-07-23T02:04:55;16.00;99.90
17703;DHT22;8970;48.104;-1.680;2022-07-23T02:06:17;15.90;99.90
17703;DHT22;8970;48.104;-1.680;2022-07-23T02:06:54;15.90;99.90
17703;DHT22;8970;48.104;-1.680;2022-07-23T02:07:31;15.80;99.90
17703;DHT22;8970;48.104;-1.680;2022-07-23T02:08:52;15.80;99.90
17703;DHT22;8970;48.104;-1.680;2022-07-23T02:09:28;15.80;99.90
17703;DHT22;8970;48.104;-1.680;2022-07-23T02:10:07;15.80;99.90
17703;DHT22;8970;48.104;-1.680;2022-07-23T02:11:29;15.70;99.90
17703;DHT22;8970;48.104;-1.680;2022-07-23T02:12:06;15.60;99.90
17703;DHT22;8970;48.104;-1.680;2022-07-23T02:12:43;15.60;99.90
17703;DHT22;8970;48.104;-1.680;2022-07-23T02:14:05;15.70;99.90
17703;DHT22;8970;48.104;-1.680;2022-07-23T02:14:42;15.70;99.90
17703;DHT22;8970;48.104;-1.680;2022-07-23T02:15:19;15.70;99.90
17703;DHT22;8970;48.104;-1.680;2022-07-23T02:15:56;15.60;99.90
17703;DHT22;8970;48.104;-1.680;2022-07-23T02:17:17;15.70;99.90
17703;DHT22;8970;48.104;-1.680;2022-07-23T02:17:53;15.70;99.90
17703;DHT22;8970;48.104;-1.680;2022-07-23T02:18:31;15.70;99.90
17703;DHT22;8970;48.104;-1.680;2022-07-23T02:19:08;15.70;99.90
17703;DHT22;8970;48.104;-1.680;2022-07-23T02:19:45;15.70;99.90
17703;DHT22;8970;48.104;-1.680;2022-07-23T02:21:04;15.70;99.90
17703;DHT22;8970;48.104;-1.680;2022-07-23T02:21:41;15.70;99.90
17703;DHT22;8970;48.104;-1.680;2022-07-23T02:22:17;15.70;99.90
17703;DHT22;8970;48.104;-1.680;2022-07-23T02:23:36;15.60;99.90
17703;DHT22;8970;48.104;-1.680;2022-07-23T02:24:13;15.60;99.90
17703;DHT22;8970;48.104;-1.680;2022-07-23T02:24:51;15.60;99.90
17703;DHT22;8970;48.104;-1.680;2022-07-23T02:25:29;15.60;99.90
17703;DHT22;8970;48.104;-1.680;2022-07-23T02:26:07;15.60;99.90
17703;DHT22;8970;48.104;-1.680;2022-07-23T02:27:32;15.70;99.90
17703;DHT22;8970;48.104;-1.680;2022-07-23T02:28:08;15.70;99.90
17703;DHT22;8970;48.104;-1.680;2022-07-23T02:28:45;15.70;99.90
17703;DHT22;8970;48.104;-1.680;2022-07-23T02:29:22;15.80;99.90
17703;DHT22;8970;48.104;-1.680;2022-07-23T02:30:43;15.80;99.90
17703;DHT22;8970;48.104;-1.680;2022-07-23T02:31:20;15.80;99.90
17703;DHT22;8970;48.104;-1.680;2022-07-23T02:31:56;15.80;99.90
17703;DHT22;8970;48.104;-1.680;2022-07-23T02:32:33;15.80;99.90
17703;DHT22;8970;48.104;-1.680;2022-07-23T02:33:10;15.80;99.90
17703;DHT22;8970;48.104;-1.680;2022-07-23T02:34:32;15.80;99.90
17703;DHT22;8970;48.104;-1.680;2022-07-23T02:35:09;15.80;99.90
17703;DHT22;8970;48.104;-1.680;2022-07-23T02:36:30;15.70;99.90
17703;DHT22;8970;48.104;-1.680;2022-07-23T02:37:07;15.70;99.90
17703;DHT22;8970;48.104;-1.680;2022-07-23T02:37:44;15.70;99.90
17703;DHT22;8970;48.104;-1.680;2022-07-23T02:38:21;15.70;99.90
17703;DHT22;8970;48.104;-1.680;2022-07-23T02:39:41;15.70;99.90
17703;DHT22;8970;48.104;-1.680;2022-07-23T02:40:18;15.70;99.90
17703;DHT22;8970;48.104;-1.680;2022-07-23T02:41:40;15.70;99.90
17703;DHT22;8970;48.104;-1.680;2022-07-23T02:42:17;15.70;99.90
17703;DHT22;8970;48.104;-1.680;2022-07-23T02:42:53;15.70;99.90
17703;DHT22;8970;48.104;-1.680;2022-07-23T02:43:30;15.70;99.90
17703;DHT22;8970;48.104;-1.680;2022-07-23T02:44:52;15.70;99.90
17703;DHT22;8970;48.104;-1.680;2022-07-23T02:45:29;15.70;99.90
17703;DHT22;8970;48.104;-1.680;2022-07-23T02:46:48;15.70;99.90
17703;DHT22;8970;48.104;-1.680;2022-07-23T02:47:26;15.70;99.90
17703;DHT22;8970;48.104;-1.680;2022-07-23T02:48:03;15.70;99.90
17703;DHT22;8970;48.104;-1.680;2022-07-23T02:49:23;15.70;99.90
17703;DHT22;8970;48.104;-1.680;2022-07-23T02:50:00;15.70;99.90
17703;DHT22;8970;48.104;-1.680;2022-07-23T02:50:36;15.80;99.90
17703;DHT22;8970;48.104;-1.680;2022-07-23T02:51:13;15.80;99.90
17703;DHT22;8970;48.104;-1.680;2022-07-23T02:51:50;15.80;99.90
17703;DHT22;8970;48.104;-1.680;2022-07-23T02:53:11;15.80;99.90
17703;DHT22;8970;48.104;-1.680;2022-07-23T02:53:48;15.90;99.90
17703;DHT22;8970;48.104;-1.680;2022-07-23T02:54:25;15.90;99.90
17703;DHT22;8970;48.104;-1.680;2022-07-23T02:55:54;15.90;99.90
17703;DHT22;8970;48.104;-1.680;2022-07-23T02:56:32;15.90;99.90
17703;DHT22;8970;48.104;-1.680;2022-07-23T02:57:09;15.90;99.90
17703;DHT22;8970;48.104;-1.680;2022-07-23T02:58:30;15.90;99.90
17703;DHT22;8970;48.104;-1.680;2022-07-23T02:59:07;15.90;99.90
17703;DHT22;8970;48.104;-1.680;2022-07-23T03:00:28;15.90;99.90
17703;DHT22;8970;48.104;-1.680;2022-07-23T03:01:05;16.00;99.90
17703;DHT22;8970;48.104;-1.680;2022-07-23T03:01:41;15.90;99.90
17703;DHT22;8970;48.104;-1.680;2022-07-23T03:02:18;15.90;99.90
17703;DHT22;8970;48.104;-1.680;2022-07-23T03:03:39;15.80;99.90
17703;DHT22;8970;48.104;-1.680;2022-07-23T03:04:16;15.80;99.90
17703;DHT22;8970;48.104;-1.680;2022-07-23T03:05:39;15.70;99.90
17703;DHT22;8970;48.104;-1.680;2022-07-23T03:06:16;15.70;99.90
17703;DHT22;8970;48.104;-1.680;2022-07-23T03:06:53;15.70;99.90
17703;DHT22;8970;48.104;-1.680;2022-07-23T03:07:29;15.70;99.90
17703;DHT22;8970;48.104;-1.680;2022-07-23T03:08:51;15.70;99.90
17703;DHT22;8970;48.104;-1.680;2022-07-23T03:09:28;15.70;99.90
17703;DHT22;8970;48.104;-1.680;2022-07-23T03:10:05;15.80;99.90
17703;DHT22;8970;48.104;-1.680;2022-07-23T03:11:27;15.80;99.90
17703;DHT22;8970;48.104;-1.680;2022-07-23T03:12:04;15.80;99.90
17703;DHT22;8970;48.104;-1.680;2022-07-23T03:13:24;15.80;99.90
17703;DHT22;8970;48.104;-1.680;2022-07-23T03:14:01;15.70;99.90
17703;DHT22;8970;48.104;-1.680;2022-07-23T03:14:38;15.70;99.90
17703;DHT22;8970;48.104;-1.680;2022-07-23T03:15:15;15.70;99.90
17703;DHT22;8970;48.104;-1.680;2022-07-23T03:15:53;15.70;99.90
17703;DHT22;8970;48.104;-1.680;2022-07-23T03:17:13;15.80;99.90
17703;DHT22;8970;48.104;-1.680;2022-07-23T03:17:50;15.70;99.90
17703;DHT22;8970;48.104;-1.680;2022-07-23T03:19:11;15.70;99.90
17703;DHT22;8970;48.104;-1.680;2022-07-23T03:19:47;15.80;99.90
17703;DHT22;8970;48.104;-1.680;2022-07-23T03:20:24;15.80;99.90
17703;DHT22;8970;48.104;-1.680;2022-07-23T03:21:46;15.80;99.90
17703;DHT22;8970;48.104;-1.680;2022-07-23T03:22:23;15.80;99.90
17703;DHT22;8970;48.104;-1.680;2022-07-23T03:23:00;15.80;99.90
17703;DHT22;8970;48.104;-1.680;2022-07-23T03:23:36;15.80;99.90
17703;DHT22;8970;48.104;-1.680;2022-07-23T03:24:13;15.80;99.90
17703;DHT22;8970;48.104;-1.680;2022-07-23T03:25:34;15.80;99.90
17703;DHT22;8970;48.104;-1.680;2022-07-23T03:26:11;15.80;99.90
17703;DHT22;8970;48.104;-1.680;2022-07-23T03:26:48;15.90;99.90
17703;DHT22;8970;48.104;-1.680;2022-07-23T03:27:26;15.80;99.90
17703;DHT22;8970;48.104;-1.680;2022-07-23T03:28:04;15.90;99.90
17703;DHT22;8970;48.104;-1.680;2022-07-23T03:29:25;15.90;99.90
17703;DHT22;8970;48.104;-1.680;2022-07-23T03:30:02;15.90;99.90
17703;DHT22;8970;48.104;-1.680;2022-07-23T03:30:40;15.90;99.90
17703;DHT22;8970;48.104;-1.680;2022-07-23T03:31:16;15.90;99.90
17703;DHT22;8970;48.104;-1.680;2022-07-23T03:32:36;15.90;99.90
17703;DHT22;8970;48.104;-1.680;2022-07-23T03:33:13;15.90;99.90
17703;DHT22;8970;48.104;-1.680;2022-07-23T03:33:50;15.90;99.90
17703;DHT22;8970;48.104;-1.680;2022-07-23T03:35:12;15.90;99.90
17703;DHT22;8970;48.104;-1.680;2022-07-23T03:35:49;15.90;99.90
17703;DHT22;8970;48.104;-1.680;2022-07-23T03:37:12;15.90;99.90
17703;DHT22;8970;48.104;-1.680;2022-07-23T03:37:50;15.90;99.90
17703;DHT22;8970;48.104;-1.680;2022-07-23T03:38:26;15.90;99.90
17703;DHT22;8970;48.104;-1.680;2022-07-23T03:39:44;15.90;99.90
17703;DHT22;8970;48.104;-1.680;2022-07-23T03:40:21;15.90;99.90
17703;DHT22;8970;48.104;-1.680;2022-07-23T03:41:43;15.90;99.90
17703;DHT22;8970;48.104;-1.680;2022-07-23T03:42:20;15.90;99.90
17703;DHT22;8970;48.104;-1.680;2022-07-23T03:42:56;15.90;99.90
17703;DHT22;8970;48.104;-1.680;2022-07-23T03:43:34;16.00;99.90
17703;DHT22;8970;48.104;-1.680;2022-07-23T03:44:54;15.90;99.90
17703;DHT22;8970;48.104;-1.680;2022-07-23T03:45:31;16.00;99.90
17703;DHT22;8970;48.104;-1.680;2022-07-23T03:46:51;15.90;99.90
17703;DHT22;8970;48.104;-1.680;2022-07-23T03:47:27;15.90;99.90
17703;DHT22;8970;48.104;-1.680;2022-07-23T03:48:04;15.90;99.90
17703;DHT22;8970;48.104;-1.680;2022-07-23T03:49:28;15.80;99.90
17703;DHT22;8970;48.104;-1.680;2022-07-23T03:50:06;15.70;99.90
17703;DHT22;8970;48.104;-1.680;2022-07-23T03:50:43;15.70;99.90
17703;DHT22;8970;48.104;-1.680;2022-07-23T03:51:20;15.70;99.90
17703;DHT22;8970;48.104;-1.680;2022-07-23T03:51:56;15.70;99.90
17703;DHT22;8970;48.104;-1.680;2022-07-23T03:53:18;15.70;99.90
17703;DHT22;8970;48.104;-1.680;2022-07-23T03:53:56;15.70;99.90
17703;DHT22;8970;48.104;-1.680;2022-07-23T03:54:34;15.70;99.90
17703;DHT22;8970;48.104;-1.680;2022-07-23T03:55:55;15.70;99.90
17703;DHT22;8970;48.104;-1.680;2022-07-23T03:57:16;15.70;99.90
17703;DHT22;8970;48.104;-1.680;2022-07-23T03:57:52;15.70;99.90
17703;DHT22;8970;48.104;-1.680;2022-07-23T03:58:29;15.70;99.90
17703;DHT22;8970;48.104;-1.680;2022-07-23T03:59:06;15.70;99.90
17703;DHT22;8970;48.104;-1.680;2022-07-23T03:59:42;15.70;99.90
17703;DHT22;8970;48.104;-1.680;2022-07-23T04:00:19;15.70;99.90
17703;DHT22;8970;48.104;-1.680;2022-07-23T04:00:56;15.70;99.90
17703;DHT22;8970;48.104;-1.680;2022-07-23T04:02:17;15.70;99.90
17703;DHT22;8970;48.104;-1.680;2022-07-23T04:02:54;15.70;99.90
17703;DHT22;8970;48.104;-1.680;2022-07-23T04:03:31;15.70;99.90
17703;DHT22;8970;48.104;-1.680;2022-07-23T04:04:08;15.70;99.90
17703;DHT22;8970;48.104;-1.680;2022-07-23T04:05:30;15.70;99.90
17703;DHT22;8970;48.104;-1.680;2022-07-23T04:06:07;15.70;99.90
17703;DHT22;8970;48.104;-1.680;2022-07-23T04:06:44;15.70;99.90
17703;DHT22;8970;48.104;-1.680;2022-07-23T04:07:21;15.70;99.90
17703;DHT22;8970;48.104;-1.680;2022-07-23T04:07:57;15.70;99.90
17703;DHT22;8970;48.104;-1.680;2022-07-23T04:08:34;15.70;99.90
17703;DHT22;8970;48.104;-1.680;2022-07-23T04:09:11;15.60;99.90
17703;DHT22;8970;48.104;-1.680;2022-07-23T04:10:33;15.60;99.90
17703;DHT22;8970;48.104;-1.680;2022-07-23T04:11:10;15.50;99.90
17703;DHT22;8970;48.104;-1.680;2022-07-23T04:11:46;15.50;99.90
17703;DHT22;8970;48.104;-1.680;2022-07-23T04:12:25;15.40;99.90
17703;DHT22;8970;48.104;-1.680;2022-07-23T04:13:47;15.40;99.90
17703;DHT22;8970;48.104;-1.680;2022-07-23T04:14:23;15.30;99.90
17703;DHT22;8970;48.104;-1.680;2022-07-23T04:15:00;15.30;99.90
17703;DHT22;8970;48.104;-1.680;2022-07-23T04:15:37;15.20;99.90
17703;DHT22;8970;48.104;-1.680;2022-07-23T04:16:14;15.20;99.90
17703;DHT22;8970;48.104;-1.680;2022-07-23T04:16:51;15.10;99.90
17703;DHT22;8970;48.104;-1.680;2022-07-23T04:18:13;15.10;99.90
17703;DHT22;8970;48.104;-1.680;2022-07-23T04:18:51;15.10;99.90
17703;DHT22;8970;48.104;-1.680;2022-07-23T04:19:28;15.10;99.90
17703;DHT22;8970;48.104;-1.680;2022-07-23T04:20:52;15.10;99.90
17703;DHT22;8970;48.104;-1.680;2022-07-23T04:21:29;15.10;99.90
17703;DHT22;8970;48.104;-1.680;2022-07-23T04:22:05;15.10;99.90
17703;DHT22;8970;48.104;-1.680;2022-07-23T04:23:26;15.10;99.90
17703;DHT22;8970;48.104;-1.680;2022-07-23T04:24:03;15.20;99.90
17703;DHT22;8970;48.104;-1.680;2022-07-23T04:24:40;15.20;99.90
17703;DHT22;8970;48.104;-1.680;2022-07-23T04:25:16;15.20;99.90
17703;DHT22;8970;48.104;-1.680;2022-07-23T04:25:54;15.20;99.90
17703;DHT22;8970;48.104;-1.680;2022-07-23T04:26:31;15.20;99.90
17703;DHT22;8970;48.104;-1.680;2022-07-23T04:27:52;15.30;99.90
17703;DHT22;8970;48.104;-1.680;2022-07-23T04:28:28;15.30;99.90
17703;DHT22;8970;48.104;-1.680;2022-07-23T04:29:05;15.30;99.90
17703;DHT22;8970;48.104;-1.680;2022-07-23T04:29:42;15.30;99.90
17703;DHT22;8970;48.104;-1.680;2022-07-23T04:31:01;15.30;99.90
17703;DHT22;8970;48.104;-1.680;2022-07-23T04:31:38;15.30;99.90
17703;DHT22;8970;48.104;-1.680;2022-07-23T04:32:15;15.30;99.90
17703;DHT22;8970;48.104;-1.680;2022-07-23T04:32:51;15.30;99.90
17703;DHT22;8970;48.104;-1.680;2022-07-23T04:34:15;15.30;99.90
17703;DHT22;8970;48.104;-1.680;2022-07-23T04:34:51;15.30;99.90
17703;DHT22;8970;48.104;-1.680;2022-07-23T04:35:28;15.30;99.90
17703;DHT22;8970;48.104;-1.680;2022-07-23T04:36:49;15.30;99.90
17703;DHT22;8970;48.104;-1.680;2022-07-23T04:37:27;15.30;99.90
17703;DHT22;8970;48.104;-1.680;2022-07-23T04:38:04;15.30;99.90
17703;DHT22;8970;48.104;-1.680;2022-07-23T04:39:24;15.30;99.90
17703;DHT22;8970;48.104;-1.680;2022-07-23T04:40:01;15.30;99.90
17703;DHT22;8970;48.104;-1.680;2022-07-23T04:40:37;15.20;99.90
17703;DHT22;8970;48.104;-1.680;2022-07-23T04:41:58;15.20;99.90
17703;DHT22;8970;48.104;-1.680;2022-07-23T04:42:35;15.20;99.90
17703;DHT22;8970;48.104;-1.680;2022-07-23T04:43:11;15.20;99.90
17703;DHT22;8970;48.104;-1.680;2022-07-23T04:44:31;15.20;99.90
17703;DHT22;8970;48.104;-1.680;2022-07-23T04:45:09;15.20;99.90
17703;DHT22;8970;48.104;-1.680;2022-07-23T04:45:46;15.20;99.90
17703;DHT22;8970;48.104;-1.680;2022-07-23T04:47:04;15.20;99.90
17703;DHT22;8970;48.104;-1.680;2022-07-23T04:47:40;15.30;99.90
17703;DHT22;8970;48.104;-1.680;2022-07-23T04:48:17;15.30;99.90
17703;DHT22;8970;48.104;-1.680;2022-07-23T04:49:37;15.20;99.90
17703;DHT22;8970;48.104;-1.680;2022-07-23T04:50:14;15.30;99.90
17703;DHT22;8970;48.104;-1.680;2022-07-23T04:51:37;15.30;99.90
17703;DHT22;8970;48.104;-1.680;2022-07-23T04:52:13;15.30;99.90
17703;DHT22;8970;48.104;-1.680;2022-07-23T04:52:51;15.30;99.90
17703;DHT22;8970;48.104;-1.680;2022-07-23T04:53:28;15.30;99.90
17703;DHT22;8970;48.104;-1.680;2022-07-23T04:54:50;15.30;99.90
17703;DHT22;8970;48.104;-1.680;2022-07-23T04:55:26;15.30;99.90
17703;DHT22;8970;48.104;-1.680;2022-07-23T04:56:04;15.40;99.90
17703;DHT22;8970;48.104;-1.680;2022-07-23T04:56:40;15.40;99.90
17703;DHT22;8970;48.104;-1.680;2022-07-23T04:58:00;15.40;99.90
17703;DHT22;8970;48.104;-1.680;2022-07-23T04:58:37;15.40;99.90
17703;DHT22;8970;48.104;-1.680;2022-07-23T04:59:14;15.40;99.90
17703;DHT22;8970;48.104;-1.680;2022-07-23T05:00:35;15.40;99.90
17703;DHT22;8970;48.104;-1.680;2022-07-23T05:01:11;15.40;99.90
17703;DHT22;8970;48.104;-1.680;2022-07-23T05:01:48;15.40;99.90
17703;DHT22;8970;48.104;-1.680;2022-07-23T05:02:25;15.40;99.90
17703;DHT22;8970;48.104;-1.680;2022-07-23T05:03:45;15.40;99.90
17703;DHT22;8970;48.104;-1.680;2022-07-23T05:04:23;15.40;99.90
17703;DHT22;8970;48.104;-1.680;2022-07-23T05:05:43;15.40;99.90
17703;DHT22;8970;48.104;-1.680;2022-07-23T05:06:20;15.40;99.90
17703;DHT22;8970;48.104;-1.680;2022-07-23T05:06:57;15.40;99.90
17703;DHT22;8970;48.104;-1.680;2022-07-23T05:07:34;15.40;99.90
17703;DHT22;8970;48.104;-1.680;2022-07-23T05:08:55;15.40;99.90
17703;DHT22;8970;48.104;-1.680;2022-07-23T05:09:32;15.40;99.90
17703;DHT22;8970;48.104;-1.680;2022-07-23T05:10:10;15.40;99.90
17703;DHT22;8970;48.104;-1.680;2022-07-23T05:11:30;15.50;99.90
17703;DHT22;8970;48.104;-1.680;2022-07-23T05:12:08;15.50;99.90
17703;DHT22;8970;48.104;-1.680;2022-07-23T05:12:44;15.50;99.90
17703;DHT22;8970;48.104;-1.680;2022-07-23T05:14:10;15.50;99.90
17703;DHT22;8970;48.104;-1.680;2022-07-23T05:14:47;15.50;99.90
17703;DHT22;8970;48.104;-1.680;2022-07-23T05:15:24;15.50;99.90